Hopetoun, Australia
Current Conditions -  °F | °C
As of 1:00 PM on Sunday 21 Dec 2014 (Local Time) from YESP Reporting Station
Overcast Overcast  
Wind Chill: 68°   Ceiling: 4000
Heat Index: 68°   Visibility: 6mi
Dew Point: 61°   Wind: 14mph
Humidity: 78%   Direction: 130°SE
Pressure: 30"   Gusts: NA
Location:  33.95°S, 120.12°E
Report Text: YESP 210500Z AUTO 13012KT 9999 // SCT015 BKN040 OVC048 20/16 Q1016
Loading
Personal Weather Stations






























Interactive Weather Map New forecast layout! Learn more

10-Day Weather Forecast

Advertisements
Track Severe Weather on mobile